Terminal Aerodrome Forecast
Issued by NWS

Home | Current Version | Previous Version | Text Only | Print | Product List | Glossary On
Versions: 1 2 3 4 5 6 7 8 9 10 11 12 13
275
FTUS44 KEPZ 061725
TAFTCS
TAF
KTCS 061725Z 0618/0718 VRB04KT P6SM SCT130 BKN200
     FM061900 22011G20KT P6SM SCT100 BKN200
     FM070200 24007KT P6SM SCT100 BKN250=

USA.gov is the U.S. government's official web portal to all federal, state and local government web resources and services.